Ferndale, New York
Current Conditions -  °F | °C
As of 9:15 AM on Thursday 23 Oct 2014 (Local Time) from KMSV Reporting Station
Overcast Overcast  
Wind Chill:   Ceiling: 2200
Heat Index:   Visibility: 10mi
Dew Point:   Wind: 10mph
Humidity: 93%   Direction: 330°NNW
Pressure: 29.8"   Gusts: 20mph
Location:  41.77°N, 74.74°W
Report Text: KMSV 231315Z AUTO 33009G17KT 10SM SCT014 BKN022 OVC039 07/06 A2980 RMK AO1
Loading
Personal Weather Stations






























Interactive Weather Map
Tropical Storm Tracking
New forecast layout! Learn more

10-Day Weather Forecast

Advertisements
Track Severe Weather on mobile